createdAt,value
2019-05-30T00:00:11.364Z,65.24
2019-05-30T00:01:38.645Z,65.13
2019-05-30T00:03:13.343Z,65.13
2019-05-30T00:04:49.621Z,65.31
2019-05-30T00:06:24.273Z,65.40
2019-05-30T00:08:00.294Z,65.43
2019-05-30T00:09:35.042Z,65.31
2019-05-30T00:11:10.295Z,65.32
2019-05-30T00:12:45.013Z,65.14
2019-05-30T00:14:20.251Z,65.14
2019-05-30T00:15:54.965Z,65.43
2019-05-30T00:17:30.172Z,65.17
2019-05-30T00:19:05.139Z,65.56
2019-05-30T00:20:40.303Z,65.56
2019-05-30T00:22:15.063Z,65.48
2019-05-30T00:23:50.272Z,65.51
2019-05-30T00:25:24.921Z,65.59
2019-05-30T00:27:00.329Z,65.59
2019-05-30T00:28:35.090Z,65.68
2019-05-30T00:30:24.061Z,65.68
2019-05-30T00:31:47.687Z,65.58
2019-05-30T00:33:23.023Z,65.92
2019-05-30T00:34:57.894Z,65.92
2019-05-30T00:36:33.104Z,65.96
2019-05-30T00:38:07.772Z,66.56
2019-05-30T00:39:43.009Z,66.56
2019-05-30T00:41:17.667Z,66.50
2019-05-30T00:42:52.905Z,66.73
2019-05-30T00:44:27.672Z,66.64
2019-05-30T00:46:04.191Z,66.62
2019-05-30T00:47:38.901Z,66.54
2019-05-30T00:49:14.232Z,66.90
2019-05-30T00:50:48.873Z,66.99
2019-05-30T00:52:24.097Z,66.92
2019-05-30T00:53:58.769Z,66.92
2019-05-30T00:55:34.000Z,67.10
2019-05-30T00:57:08.643Z,67.17
2019-05-30T00:58:43.927Z,67.17
2019-05-30T01:00:18.760Z,67.08
2019-05-30T01:01:54.001Z,67.08
2019-05-30T01:03:28.654Z,67.49
2019-05-30T01:05:05.147Z,67.20
2019-05-30T01:06:39.920Z,67.20
2019-05-30T01:08:15.244Z,67.57
2019-05-30T01:09:49.898Z,67.61
2019-05-30T01:11:25.108Z,67.50
2019-05-30T01:13:01.277Z,67.53
2019-05-30T01:14:36.598Z,67.50
2019-05-30T01:16:11.250Z,67.40
2019-05-30T01:17:46.504Z,67.52
2019-05-30T01:19:21.149Z,67.37
2019-05-30T01:20:56.998Z,67.36
2019-05-30T01:22:31.832Z,67.31
2019-05-30T01:24:07.692Z,67.31
2019-05-30T01:25:42.457Z,67.51
2019-05-30T01:27:17.680Z,67.63
2019-05-30T01:28:52.318Z,67.34
2019-05-30T01:30:28.017Z,67.52
2019-05-30T01:32:21.692Z,67.44
2019-05-30T01:33:57.465Z,67.57
2019-05-30T01:35:32.794Z,67.67
2019-05-30T01:37:07.893Z,67.92
2019-05-30T01:38:43.160Z,68.26
2019-05-30T01:40:17.823Z,68.03
2019-05-30T01:41:53.058Z,68.03
2019-05-30T01:43:27.752Z,68.25
2019-05-30T01:45:04.142Z,68.41
2019-05-30T01:46:38.821Z,68.64
2019-05-30T01:48:14.060Z,68.61
2019-05-30T01:49:48.703Z,68.94
2019-05-30T01:51:23.945Z,69.08
2019-05-30T01:52:58.584Z,68.96
2019-05-30T01:54:33.847Z,69.05
2019-05-30T01:56:08.981Z,69.28
2019-05-30T01:57:44.276Z,68.92
2019-05-30T01:59:18.948Z,69.29
2019-05-30T02:00:54.215Z,69.29
2019-05-30T02:02:28.861Z,69.41
2019-05-30T02:04:05.208Z,69.51
2019-05-30T02:05:40.089Z,69.55
2019-05-30T02:07:15.319Z,69.12
2019-05-30T02:08:50.011Z,69.48
2019-05-30T02:10:25.369Z,69.45
2019-05-30T02:12:01.191Z,69.17
2019-05-30T02:13:36.616Z,69.66
2019-05-30T02:15:12.411Z,69.66
2019-05-30T02:16:47.899Z,69.63
2019-05-30T02:18:22.616Z,69.89
2019-05-30T02:19:59.692Z,70.00
2019-05-30T02:21:34.386Z,70.00
2019-05-30T02:23:11.470Z,69.95
2019-05-30T02:24:45.978Z,69.95
2019-05-30T02:26:21.216Z,70.26
2019-05-30T02:27:56.422Z,70.26
2019-05-30T02:29:31.662Z,70.14
2019-05-30T02:31:07.094Z,69.99
2019-05-30T02:32:43.015Z,70.27
2019-05-30T02:34:17.637Z,70.33
2019-05-30T02:35:52.889Z,70.23
2019-05-30T02:37:27.547Z,70.29
2019-05-30T02:39:03.089Z,70.41
2019-05-30T02:40:37.775Z,70.13
2019-05-30T02:42:13.078Z,70.35
2019-05-30T02:43:51.953Z,70.20
2019-05-30T02:45:27.250Z,70.18
2019-05-30T02:47:03.529Z,70.17
2019-05-30T02:48:57.385Z,70.27
2019-05-30T02:50:15.666Z,69.99
2019-05-30T02:51:50.905Z,69.86
2019-05-30T02:53:25.592Z,69.86
2019-05-30T02:55:01.788Z,70.28
2019-05-30T02:56:37.148Z,70.36
2019-05-30T02:58:12.956Z,70.56
2019-05-30T02:59:49.057Z,70.96
2019-05-30T03:01:24.317Z,70.96
2019-05-30T03:02:59.009Z,70.68
2019-05-30T03:04:34.222Z,70.60
2019-05-30T03:06:11.043Z,70.49
2019-05-30T03:07:45.897Z,70.47
2019-05-30T03:09:20.692Z,70.51
2019-05-30T03:10:56.220Z,70.47
2019-05-30T03:12:30.942Z,70.43
2019-05-30T03:14:12.084Z,70.50
2019-05-30T03:15:43.716Z,70.50
2019-05-30T03:17:18.990Z,69.97
2019-05-30T03:18:54.080Z,69.80
2019-05-30T03:20:29.362Z,69.80
2019-05-30T03:22:05.189Z,69.90
2019-05-30T03:23:42.549Z,69.90
2019-05-30T03:25:17.460Z,69.82
2019-05-30T03:26:52.797Z,69.57
2019-05-30T03:28:27.758Z,69.27
2019-05-30T03:30:07.524Z,69.40
2019-05-30T03:31:40.441Z,69.32
2019-05-30T03:33:36.089Z,68.78
2019-05-30T03:34:52.364Z,68.78
2019-05-30T03:36:31.380Z,68.92
2019-05-30T03:38:05.728Z,68.84
2019-05-30T03:39:41.276Z,68.69
2019-05-30T03:41:16.063Z,68.07
2019-05-30T03:42:51.774Z,68.01
2019-05-30T03:44:26.418Z,67.47
2019-05-30T03:46:03.912Z,66.84
2019-05-30T03:47:38.979Z,67.18
2019-05-30T03:49:17.869Z,67.18
2019-05-30T03:50:53.893Z,66.94
2019-05-30T03:52:29.309Z,67.06
2019-05-30T03:54:05.536Z,66.71
2019-05-30T03:55:42.032Z,66.34
2019-05-30T03:57:24.215Z,66.34
2019-05-30T03:59:05.911Z,66.37
2019-05-30T04:00:50.804Z,65.62
2019-05-30T04:02:56.468Z,65.21
2019-05-30T04:04:24.206Z,65.07
2019-05-30T04:06:02.684Z,65.07
2019-05-30T04:07:41.365Z,63.65
2019-05-30T04:09:22.470Z,64.29
2019-05-30T04:10:56.321Z,64.29
2019-05-30T04:12:55.479Z,63.80
2019-05-30T04:14:32.826Z,63.80
2019-05-30T04:16:08.692Z,62.93
2019-05-30T04:17:44.135Z,62.70
2019-05-30T04:19:20.093Z,62.71
2019-05-30T04:20:56.663Z,62.55
2019-05-30T04:22:31.309Z,62.55
2019-05-30T04:24:08.043Z,62.29
2019-05-30T04:25:43.882Z,61.99
2019-05-30T04:27:19.259Z,61.99
2019-05-30T04:28:53.954Z,62.74
2019-05-30T04:30:30.163Z,62.15
2019-05-30T04:32:05.976Z,62.22
2019-05-30T04:33:41.325Z,62.22
2019-05-30T04:35:16.871Z,61.67
2019-05-30T04:36:53.554Z,60.76
2019-05-30T04:38:28.623Z,60.76
2019-05-30T04:40:03.994Z,60.90
2019-05-30T04:41:38.658Z,60.53
2019-05-30T04:43:15.325Z,60.48
2019-05-30T04:44:50.272Z,59.94
2019-05-30T04:46:25.502Z,59.54
2019-05-30T04:48:00.182Z,59.54
2019-05-30T04:49:35.503Z,58.32
2019-05-30T04:51:10.834Z,54.42
2019-05-30T04:52:47.203Z,52.14
2019-05-30T04:54:22.304Z,53.03
2019-05-30T04:55:57.575Z,48.95
2019-05-30T04:57:32.239Z,47.69
2019-05-30T04:59:07.565Z,46.51
2019-05-30T05:00:42.300Z,45.14
2019-05-30T05:02:18.840Z,43.99
2019-05-30T05:03:54.016Z,43.68
2019-05-30T05:05:29.561Z,43.68
2019-05-30T05:07:04.245Z,40.96
2019-05-30T05:08:39.492Z,44.32
2019-05-30T05:10:14.149Z,44.18
2019-05-30T05:11:49.511Z,41.45
2019-05-30T05:13:24.186Z,42.85
2019-05-30T05:14:59.438Z,42.10
2019-05-30T05:16:36.313Z,45.03
2019-05-30T05:18:11.027Z,51.64
2019-05-30T05:19:46.774Z,54.82
2019-05-30T05:21:23.137Z,54.95
2019-05-30T05:22:57.914Z,55.83
2019-05-30T05:24:33.147Z,55.80
2019-05-30T05:26:07.781Z,56.11
2019-05-30T05:27:43.017Z,54.54
2019-05-30T05:29:18.004Z,55.02
2019-05-30T05:30:53.352Z,55.53
2019-05-30T05:32:28.086Z,56.54
2019-05-30T05:34:03.334Z,56.83
2019-05-30T05:35:37.977Z,57.33
2019-05-30T05:37:13.208Z,57.24
2019-05-30T05:38:47.845Z,57.88
2019-05-30T05:40:24.322Z,57.04
2019-05-30T05:41:59.107Z,57.06
2019-05-30T05:43:34.370Z,58.07
2019-05-30T05:45:09.382Z,58.10
2019-05-30T05:46:44.687Z,56.88
2019-05-30T05:48:20.391Z,57.98
2019-05-30T05:49:56.018Z,56.39
2019-05-30T05:51:30.771Z,57.27
2019-05-30T05:53:06.031Z,56.96
2019-05-30T05:54:40.687Z,56.72
2019-05-30T05:56:16.938Z,56.62
2019-05-30T05:57:52.112Z,57.15
2019-05-30T05:59:27.497Z,57.69
2019-05-30T06:01:02.205Z,56.59
2019-05-30T06:02:37.503Z,57.87
2019-05-30T06:04:13.885Z,57.41
2019-05-30T06:05:53.231Z,57.39
2019-05-30T06:07:25.845Z,57.51
2019-05-30T06:09:01.067Z,54.98
2019-05-30T06:10:35.997Z,55.81
2019-05-30T06:12:11.247Z,56.06
2019-05-30T06:13:45.944Z,56.59
2019-05-30T06:15:21.206Z,54.87
2019-05-30T06:16:56.205Z,55.30
2019-05-30T06:18:31.561Z,54.61
2019-05-30T06:20:06.662Z,55.57
2019-05-30T06:21:53.585Z,55.42
2019-05-30T06:23:19.481Z,54.50
2019-05-30T06:24:54.896Z,54.17
2019-05-30T06:26:29.543Z,54.52
2019-05-30T06:28:05.141Z,52.87
2019-05-30T06:29:39.816Z,53.85
2019-05-30T06:31:15.055Z,53.17
2019-05-30T06:32:49.736Z,53.51
2019-05-30T06:34:35.914Z,52.31
2019-05-30T06:36:01.417Z,52.65
2019-05-30T06:37:36.828Z,51.03
2019-05-30T06:39:11.479Z,44.63
2019-05-30T06:40:46.718Z,44.02
2019-05-30T06:42:21.696Z,39.15
2019-05-30T06:43:56.991Z,36.67
2019-05-30T06:45:31.702Z,31.63
2019-05-30T06:47:07.319Z,37.08
2019-05-30T06:48:42.055Z,42.61
2019-05-30T06:50:17.360Z,44.07
2019-05-30T06:51:52.114Z,43.33
2019-05-30T06:53:27.439Z,45.83
2019-05-30T06:55:02.083Z,45.17
2019-05-30T06:56:37.309Z,47.31
2019-05-30T06:58:12.020Z,47.05
2019-05-30T06:59:47.347Z,47.73
2019-05-30T07:01:22.156Z,48.12
2019-05-30T07:02:57.440Z,47.98
2019-05-30T07:04:50.430Z,48.53
2019-05-30T07:06:10.053Z,47.25
2019-05-30T07:07:45.262Z,50.32
2019-05-30T07:09:20.715Z,44.00
2019-05-30T07:10:55.357Z,45.05
2019-05-30T07:12:31.160Z,46.21
2019-05-30T07:14:06.556Z,46.84
2019-05-30T07:15:41.813Z,46.15
2019-05-30T07:17:16.482Z,46.92
2019-05-30T07:18:51.713Z,44.80
2019-05-30T07:20:27.500Z,46.37
2019-05-30T07:22:02.746Z,42.25
2019-05-30T07:23:39.412Z,43.11
2019-05-30T07:25:14.853Z,44.90
2019-05-30T07:26:49.515Z,44.14
2019-05-30T07:28:25.808Z,45.16
2019-05-30T07:30:00.464Z,45.24
2019-05-30T07:31:35.729Z,47.37
2019-05-30T07:33:10.415Z,47.73
2019-05-30T07:34:46.200Z,49.77
2019-05-30T07:36:20.973Z,48.98
2019-05-30T07:37:56.237Z,49.93
2019-05-30T07:39:33.706Z,48.60
2019-05-30T07:41:08.135Z,49.76
2019-05-30T07:42:42.805Z,50.88
2019-05-30T07:44:18.043Z,48.64
2019-05-30T07:45:58.048Z,49.13
2019-05-30T07:47:30.158Z,48.67
2019-05-30T07:49:05.036Z,49.17
2019-05-30T07:50:40.277Z,48.85
2019-05-30T07:52:14.926Z,51.39
2019-05-30T07:53:50.179Z,49.56
2019-05-30T07:55:24.818Z,49.53
2019-05-30T07:57:00.101Z,51.03
2019-05-30T07:58:35.356Z,51.89
2019-05-30T08:00:11.666Z,51.38
2019-05-30T08:01:46.357Z,53.01
2019-05-30T08:03:21.611Z,53.99
2019-05-30T08:04:56.290Z,53.65
2019-05-30T08:06:31.607Z,53.96
2019-05-30T08:08:06.343Z,49.98
2019-05-30T08:09:42.557Z,48.32
2019-05-30T08:11:17.214Z,48.72
2019-05-30T08:12:52.756Z,50.22
2019-05-30T08:14:27.408Z,49.36
2019-05-30T08:16:02.667Z,49.88
2019-05-30T08:17:37.883Z,49.92
2019-05-30T08:19:13.357Z,50.58
2019-05-30T08:20:48.028Z,50.15
2019-05-30T08:22:23.372Z,52.79
2019-05-30T08:23:58.178Z,53.20
2019-05-30T08:25:34.253Z,54.46
2019-05-30T08:27:09.037Z,54.47
2019-05-30T08:28:44.587Z,53.32
2019-05-30T08:30:19.505Z,54.39
2019-05-30T08:31:54.743Z,55.03
2019-05-30T08:33:29.770Z,53.51
2019-05-30T08:35:05.082Z,53.03
2019-05-30T08:36:39.747Z,53.45
2019-05-30T08:38:14.996Z,53.73
2019-05-30T08:39:49.629Z,52.62
2019-05-30T08:41:24.898Z,52.26
2019-05-30T08:42:59.550Z,52.79
2019-05-30T08:44:35.891Z,51.96
2019-05-30T08:46:10.668Z,50.99
2019-05-30T08:47:45.943Z,51.06
2019-05-30T08:49:21.732Z,52.03
2019-05-30T08:50:56.995Z,53.01
2019-05-30T08:52:32.429Z,51.26
2019-05-30T08:54:07.875Z,50.88
2019-05-30T08:55:43.011Z,51.68
2019-05-30T08:57:18.287Z,52.53
2019-05-30T08:58:52.943Z,52.06
2019-05-30T09:00:29.744Z,51.97
2019-05-30T09:02:04.606Z,51.60
2019-05-30T09:03:40.224Z,51.56
2019-05-30T09:05:15.199Z,50.64
2019-05-30T09:06:50.810Z,50.95
2019-05-30T09:08:25.455Z,51.97
2019-05-30T09:10:00.757Z,51.70
2019-05-30T09:11:37.675Z,51.73
2019-05-30T09:13:13.584Z,51.28
2019-05-30T09:14:48.305Z,53.21
2019-05-30T09:16:23.500Z,51.79
2019-05-30T09:17:58.517Z,52.21
2019-05-30T09:19:33.861Z,51.73
2019-05-30T09:21:08.866Z,49.71
2019-05-30T09:22:45.401Z,51.40
2019-05-30T09:24:20.459Z,50.20
2019-05-30T09:25:55.792Z,49.91
2019-05-30T09:27:30.432Z,49.45
2019-05-30T09:29:06.027Z,49.53
2019-05-30T09:30:41.602Z,47.49
2019-05-30T09:32:17.730Z,45.83
2019-05-30T09:33:52.447Z,45.64
2019-05-30T09:35:28.050Z,44.56
2019-05-30T09:37:02.727Z,43.55
2019-05-30T09:38:38.851Z,43.07
2019-05-30T09:40:15.443Z,43.72
2019-05-30T09:41:50.752Z,44.67
2019-05-30T09:43:25.415Z,42.83
2019-05-30T09:45:05.323Z,42.97
2019-05-30T09:46:41.355Z,41.10
2019-05-30T09:48:16.974Z,41.59
2019-05-30T09:49:51.774Z,41.75
2019-05-30T09:51:27.089Z,41.55
2019-05-30T09:53:01.757Z,44.04
2019-05-30T09:54:37.005Z,44.25
2019-05-30T09:56:12.745Z,45.28
2019-05-30T09:57:48.014Z,46.51
2019-05-30T09:59:22.650Z,47.13
2019-05-30T10:00:57.987Z,47.83
2019-05-30T10:02:33.696Z,49.15
2019-05-30T10:04:08.945Z,49.20
2019-05-30T10:05:45.116Z,48.96
2019-05-30T10:07:20.682Z,48.21
2019-05-30T10:08:55.381Z,46.68
2019-05-30T10:10:30.689Z,47.49
2019-05-30T10:12:05.336Z,47.87
2019-05-30T10:13:40.562Z,48.06
2019-05-30T10:15:15.487Z,48.74
2019-05-30T10:16:55.884Z,49.37
2019-05-30T10:18:27.145Z,50.45
2019-05-30T10:20:02.407Z,48.94
2019-05-30T10:21:37.213Z,49.44
2019-05-30T10:23:12.512Z,49.31
2019-05-30T10:24:47.607Z,49.68
2019-05-30T10:26:24.058Z,50.60
2019-05-30T10:27:58.740Z,52.61
2019-05-30T10:29:33.968Z,53.01
2019-05-30T10:31:08.616Z,51.58
2019-05-30T10:32:45.422Z,50.69
2019-05-30T10:34:20.328Z,50.58
2019-05-30T10:35:56.952Z,51.54
2019-05-30T10:37:32.773Z,51.74
2019-05-30T10:39:08.859Z,51.71
2019-05-30T10:40:43.610Z,52.80
2019-05-30T10:42:18.840Z,53.10
2019-05-30T10:43:53.513Z,52.51
2019-05-30T10:45:29.038Z,53.37
2019-05-30T10:47:03.702Z,53.46
2019-05-30T10:48:39.004Z,52.39
2019-05-30T10:50:14.110Z,52.33
2019-05-30T10:51:49.656Z,53.45
2019-05-30T10:53:24.310Z,53.15
2019-05-30T10:54:59.541Z,52.39
2019-05-30T10:56:34.334Z,52.79
2019-05-30T10:58:09.652Z,52.59
2019-05-30T10:59:45.983Z,51.95
2019-05-30T11:01:21.406Z,51.83
2019-05-30T11:02:57.122Z,50.65
2019-05-30T11:04:32.536Z,50.47
2019-05-30T11:06:18.663Z,51.70
2019-05-30T11:08:05.620Z,51.66
2019-05-30T11:09:39.828Z,51.54
2019-05-30T11:11:15.093Z,51.19
2019-05-30T11:12:56.379Z,52.00
2019-05-30T11:14:27.671Z,51.71
2019-05-30T11:16:02.400Z,51.53
2019-05-30T11:17:37.675Z,51.16
2019-05-30T11:19:12.328Z,52.27
2019-05-30T11:20:47.858Z,52.77
2019-05-30T11:22:22.715Z,51.87
2019-05-30T11:23:58.388Z,51.51
2019-05-30T11:25:33.168Z,50.86
2019-05-30T11:27:08.482Z,51.91
2019-05-30T11:28:43.226Z,51.30
2019-05-30T11:30:18.714Z,51.09
2019-05-30T11:31:53.358Z,51.84
2019-05-30T11:33:28.740Z,52.24
2019-05-30T11:35:03.413Z,51.90
2019-05-30T11:36:38.644Z,51.89
2019-05-30T11:38:13.313Z,52.37
2019-05-30T11:39:49.073Z,53.62
2019-05-30T11:41:23.834Z,52.35
2019-05-30T11:42:59.918Z,50.46
2019-05-30T11:44:34.907Z,50.29
2019-05-30T11:46:10.142Z,50.31
2019-05-30T11:47:44.777Z,48.52
2019-05-30T11:49:20.028Z,48.20
2019-05-30T11:50:55.775Z,49.81
2019-05-30T11:52:31.029Z,50.21
2019-05-30T11:54:05.668Z,49.28
2019-05-30T11:55:40.915Z,49.72
2019-05-30T11:57:15.675Z,50.02
2019-05-30T11:58:52.041Z,49.32
2019-05-30T12:00:27.260Z,46.82
2019-05-30T12:02:02.600Z,46.83
2019-05-30T12:03:37.316Z,46.32
2019-05-30T12:05:13.596Z,48.11
2019-05-30T12:06:53.145Z,46.54
2019-05-30T12:08:28.403Z,47.80
2019-05-30T12:10:03.106Z,47.07
2019-05-30T12:11:38.732Z,46.13
2019-05-30T12:13:14.452Z,45.03
2019-05-30T12:14:51.189Z,44.67
2019-05-30T12:16:26.092Z,46.65
2019-05-30T12:18:02.471Z,48.31
2019-05-30T12:19:37.364Z,49.33
2019-05-30T12:21:12.592Z,49.21
2019-05-30T12:22:47.314Z,49.66
2019-05-30T12:24:22.638Z,48.90
2019-05-30T12:25:58.063Z,48.91
2019-05-30T12:27:33.384Z,49.29
2019-05-30T12:29:08.174Z,50.41
2019-05-30T12:30:55.903Z,49.61
2019-05-30T12:32:19.753Z,50.05
2019-05-30T12:33:56.191Z,48.99
2019-05-30T12:35:30.928Z,47.76
2019-05-30T12:37:06.452Z,49.42
2019-05-30T12:38:41.119Z,48.57
2019-05-30T12:40:18.647Z,49.12
2019-05-30T12:41:53.359Z,48.76
2019-05-30T12:43:28.587Z,48.14
2019-05-30T12:45:06.855Z,49.15
2019-05-30T12:46:40.313Z,50.85
2019-05-30T12:48:15.990Z,49.21
2019-05-30T12:49:51.223Z,49.49
2019-05-30T12:51:25.898Z,49.45
2019-05-30T12:53:02.116Z,46.65
2019-05-30T12:54:37.986Z,47.20
2019-05-30T12:56:14.581Z,48.43
2019-05-30T12:57:49.266Z,48.31
2019-05-30T12:59:24.898Z,48.36
2019-05-30T13:01:00.885Z,47.95
2019-05-30T13:02:36.206Z,50.01
2019-05-30T13:04:10.973Z,49.16
2019-05-30T13:05:46.207Z,50.01
2019-05-30T13:07:20.879Z,51.73
2019-05-30T13:08:56.986Z,50.34
2019-05-30T13:10:32.789Z,52.82
2019-05-30T13:12:08.277Z,51.66
2019-05-30T13:13:43.056Z,51.87
2019-05-30T13:15:18.624Z,51.83
2019-05-30T13:16:53.363Z,51.68
2019-05-30T13:18:28.605Z,51.99
2019-05-30T13:20:05.014Z,52.03
2019-05-30T13:21:40.302Z,52.16
2019-05-30T13:23:14.968Z,53.50
2019-05-30T13:24:50.198Z,53.39
2019-05-30T13:26:24.917Z,53.49
2019-05-30T13:28:03.771Z,53.88
2019-05-30T13:29:36.955Z,53.95
2019-05-30T13:31:12.180Z,53.66
2019-05-30T13:32:46.831Z,54.23
2019-05-30T13:34:22.127Z,53.95
2019-05-30T13:35:57.052Z,54.25
2019-05-30T13:37:32.362Z,54.12
2019-05-30T13:39:07.904Z,53.43
2019-05-30T13:40:43.155Z,53.92
2019-05-30T13:42:18.135Z,53.70
2019-05-30T13:43:53.451Z,52.63
2019-05-30T13:45:28.115Z,53.85
2019-05-30T13:47:04.496Z,53.71
2019-05-30T13:48:40.178Z,53.98
2019-05-30T13:50:15.503Z,54.84
2019-05-30T13:51:50.150Z,54.54
2019-05-30T13:53:25.371Z,55.02
2019-05-30T13:55:00.969Z,55.36
2019-05-30T13:56:37.199Z,55.63
2019-05-30T13:58:11.861Z,55.18
2019-05-30T13:59:47.121Z,54.52
2019-05-30T14:01:21.826Z,54.36
2019-05-30T14:02:57.097Z,53.90
2019-05-30T14:04:31.844Z,53.80
2019-05-30T14:06:08.314Z,54.22
2019-05-30T14:07:49.429Z,53.18
2019-05-30T14:09:24.789Z,53.71
2019-05-30T14:11:00.500Z,53.50
2019-05-30T14:12:35.926Z,51.92
2019-05-30T14:14:10.987Z,52.41
2019-05-30T14:15:46.330Z,52.80
2019-05-30T14:17:20.977Z,54.04
2019-05-30T14:18:56.213Z,53.75
2019-05-30T14:20:30.876Z,54.31
2019-05-30T14:22:07.252Z,54.76
2019-05-30T14:23:42.092Z,53.83
2019-05-30T14:25:17.704Z,54.39
2019-05-30T14:26:52.380Z,54.45
2019-05-30T14:28:27.676Z,55.35
2019-05-30T14:30:04.673Z,55.51
2019-05-30T14:31:40.137Z,55.72
2019-05-30T14:33:14.777Z,56.32
2019-05-30T14:34:49.993Z,56.43
2019-05-30T14:36:24.733Z,56.19
2019-05-30T14:37:59.996Z,56.07
2019-05-30T14:39:34.670Z,56.63
2019-05-30T14:41:11.993Z,56.40
2019-05-30T14:42:46.375Z,57.02
2019-05-30T14:46:13.916Z,58.79
2019-05-30T14:47:49.202Z,58.38
2019-05-30T14:49:23.845Z,58.57
2019-05-30T14:50:59.094Z,58.55
2019-05-30T14:52:33.752Z,58.38
2019-05-30T14:54:09.071Z,58.92
2019-05-30T14:55:43.749Z,58.25
2019-05-30T14:57:19.538Z,56.71
2019-05-30T14:58:57.247Z,56.06
2019-05-30T15:00:32.548Z,56.96
2019-05-30T15:02:07.277Z,57.13
2019-05-30T15:03:42.528Z,57.49
2019-05-30T15:05:17.264Z,57.72
2019-05-30T15:06:52.491Z,58.36
2019-05-30T15:08:27.160Z,58.59
2019-05-30T15:10:02.399Z,58.04
2019-05-30T15:11:37.038Z,57.94
2019-05-30T15:13:12.290Z,58.21
2019-05-30T15:14:46.962Z,58.05
2019-05-30T15:16:22.200Z,57.16
2019-05-30T15:17:56.921Z,57.81
2019-05-30T15:19:32.151Z,58.93
2019-05-30T15:21:06.830Z,59.49
2019-05-30T15:22:42.143Z,59.55
2019-05-30T15:24:16.768Z,59.23
2019-05-30T15:25:52.070Z,59.51
2019-05-30T15:27:26.717Z,59.89
2019-05-30T15:29:01.961Z,59.12
2019-05-30T15:30:36.646Z,59.50
2019-05-30T15:32:12.358Z,59.33
2019-05-30T15:33:47.222Z,58.01
2019-05-30T15:35:22.566Z,57.46
2019-05-30T15:36:57.199Z,57.54
2019-05-30T15:38:32.454Z,57.01
2019-05-30T15:40:08.762Z,58.32
2019-05-30T15:41:44.052Z,57.30
2019-05-30T15:43:18.769Z,56.67
2019-05-30T15:44:54.076Z,56.89
2019-05-30T15:46:28.706Z,56.14
2019-05-30T15:48:04.027Z,56.53
2019-05-30T15:49:38.704Z,56.11
2019-05-30T15:51:14.669Z,56.69
2019-05-30T15:52:49.413Z,56.13
2019-05-30T15:54:24.694Z,55.85
2019-05-30T15:55:59.321Z,55.42
2019-05-30T15:57:34.628Z,56.13
2019-05-30T15:59:09.599Z,56.82
2019-05-30T16:00:44.857Z,57.25
2019-05-30T16:02:20.462Z,56.85
2019-05-30T16:03:55.760Z,56.99
2019-05-30T16:05:30.393Z,57.47
2019-05-30T16:07:05.754Z,57.70
2019-05-30T16:08:40.451Z,58.20
2019-05-30T16:10:16.969Z,59.00
2019-05-30T16:11:51.856Z,60.08
2019-05-30T16:13:27.092Z,58.71
2019-05-30T16:15:01.825Z,59.56
2019-05-30T16:16:40.089Z,59.79
2019-05-30T16:18:13.758Z,59.79
2019-05-30T16:19:49.131Z,61.21
2019-05-30T16:21:23.752Z,60.27
2019-05-30T16:22:58.982Z,60.48
2019-05-30T16:24:33.708Z,60.13
2019-05-30T16:26:08.918Z,60.78
2019-05-30T16:27:43.602Z,60.79
2019-05-30T16:29:19.816Z,60.34
2019-05-30T16:30:54.580Z,59.54
2019-05-30T16:32:29.836Z,59.73
2019-05-30T16:34:04.922Z,59.84
2019-05-30T16:35:40.199Z,59.71
2019-05-30T16:37:16.025Z,59.96
2019-05-30T16:38:51.279Z,59.58
2019-05-30T16:40:26.688Z,60.64
2019-05-30T16:42:02.181Z,60.65
2019-05-30T16:43:36.824Z,60.93
2019-05-30T16:45:18.707Z,61.53
2019-05-30T16:46:50.495Z,62.18
2019-05-30T16:48:26.735Z,61.49
2019-05-30T16:50:01.424Z,61.84
2019-05-30T16:51:36.675Z,61.87
2019-05-30T16:53:11.488Z,61.24
2019-05-30T16:54:46.793Z,60.92
2019-05-30T16:56:21.575Z,61.92
2019-05-30T16:57:56.839Z,62.06
2019-05-30T16:59:32.542Z,61.54
2019-05-30T17:01:08.954Z,61.04
2019-05-30T17:02:43.630Z,61.13
2019-05-30T17:04:18.953Z,61.38
2019-05-30T17:05:54.053Z,61.54
2019-05-30T17:07:29.331Z,61.70
2019-05-30T17:09:06.633Z,62.62
2019-05-30T17:10:42.626Z,62.40
2019-05-30T17:12:17.478Z,62.40
2019-05-30T17:13:52.716Z,62.35
2019-05-30T17:15:27.757Z,62.16
2019-05-30T17:17:03.259Z,62.91
2019-05-30T17:18:38.402Z,63.13
2019-05-30T17:20:16.461Z,62.70
2019-05-30T17:21:51.110Z,62.21
2019-05-30T17:23:26.942Z,62.03
2019-05-30T17:25:03.137Z,62.61
2019-05-30T17:26:39.444Z,62.90
2019-05-30T17:28:14.987Z,62.72
2019-05-30T17:29:50.329Z,62.32
2019-05-30T17:31:26.160Z,62.33
2019-05-30T17:33:01.436Z,62.40
2019-05-30T17:34:36.055Z,62.47
2019-05-30T17:36:11.316Z,62.72
2019-05-30T17:37:45.989Z,62.76
2019-05-30T17:39:22.456Z,62.64
2019-05-30T17:40:57.164Z,62.91
2019-05-30T17:42:32.416Z,62.94
2019-05-30T17:44:07.323Z,63.34
2019-05-30T17:45:42.575Z,63.48
2019-05-30T17:47:17.281Z,63.74
2019-05-30T17:48:52.536Z,63.45
2019-05-30T17:50:27.862Z,63.64
2019-05-30T17:52:03.243Z,63.95
2019-05-30T17:53:37.903Z,64.29
2019-05-30T17:55:13.782Z,64.54
2019-05-30T17:56:48.458Z,64.24
2019-05-30T17:58:30.599Z,64.39
2019-05-30T18:00:05.991Z,65.07
2019-05-30T18:01:41.486Z,65.28
2019-05-30T18:03:16.126Z,65.10
2019-05-30T18:04:52.331Z,64.90
2019-05-30T18:06:27.009Z,64.59
2019-05-30T18:08:02.379Z,65.04
2019-05-30T18:09:37.184Z,65.15
2019-05-30T18:11:12.455Z,65.55
2019-05-30T18:12:47.098Z,65.45
2019-05-30T18:14:23.037Z,65.59
2019-05-30T18:15:57.846Z,65.24
2019-05-30T18:17:33.097Z,65.26
2019-05-30T18:19:07.740Z,65.51
2019-05-30T18:20:48.274Z,65.87
2019-05-30T18:22:19.412Z,65.91
2019-05-30T18:23:54.642Z,65.87
2019-05-30T18:25:29.694Z,65.93
2019-05-30T18:27:05.035Z,65.71
2019-05-30T18:28:39.666Z,66.21
2019-05-30T18:30:16.526Z,66.20
2019-05-30T18:31:51.149Z,66.31
2019-05-30T18:33:26.408Z,66.22
2019-05-30T18:35:01.065Z,66.26
2019-05-30T18:36:36.373Z,66.63
2019-05-30T18:38:11.182Z,66.92
2019-05-30T18:39:46.471Z,66.86
2019-05-30T18:41:21.110Z,66.91
2019-05-30T18:42:56.338Z,66.55
2019-05-30T18:44:32.830Z,66.87
2019-05-30T18:46:07.969Z,67.19
2019-05-30T18:47:42.617Z,67.38
2019-05-30T18:49:17.931Z,67.44
2019-05-30T18:50:52.595Z,67.23
2019-05-30T18:52:28.360Z,67.55
2019-05-30T18:54:04.211Z,67.75
2019-05-30T18:55:39.437Z,67.78
2019-05-30T18:57:14.084Z,67.68
2019-05-30T18:58:49.295Z,67.62
2019-05-30T19:00:24.909Z,67.82
2019-05-30T19:02:00.274Z,67.75
2019-05-30T19:03:34.912Z,68.18
2019-05-30T19:05:10.446Z,68.22
2019-05-30T19:06:45.165Z,68.27
2019-05-30T19:08:20.392Z,68.34
2019-05-30T19:09:55.973Z,68.62
2019-05-30T19:11:34.873Z,68.49
2019-05-30T19:13:07.710Z,69.08
2019-05-30T19:14:44.540Z,68.57
2019-05-30T19:16:19.192Z,68.76
2019-05-30T19:17:54.502Z,68.94
2019-05-30T19:19:33.836Z,68.99
2019-05-30T19:21:09.046Z,69.22
2019-05-30T19:22:43.721Z,69.22
2019-05-30T19:24:20.772Z,69.64
2019-05-30T19:25:57.784Z,69.85
2019-05-30T19:27:37.132Z,69.55
2019-05-30T19:29:12.563Z,69.72
2019-05-30T19:30:47.902Z,69.72
2019-05-30T19:32:26.439Z,69.80
2019-05-30T19:34:06.843Z,69.60
2019-05-30T19:35:45.366Z,69.49
2019-05-30T19:37:22.630Z,69.72
2019-05-30T19:38:57.871Z,70.03
2019-05-30T19:40:33.668Z,70.10
2019-05-30T19:42:10.046Z,70.31
2019-05-30T19:43:44.702Z,70.62
2019-05-30T19:45:20.777Z,70.48
2019-05-30T19:46:55.420Z,70.92
2019-05-30T19:48:30.650Z,70.78
2019-05-30T19:50:05.990Z,70.76
2019-05-30T19:51:41.220Z,71.13
2019-05-30T19:53:15.834Z,71.39
2019-05-30T19:54:51.113Z,72.02
2019-05-30T19:56:25.743Z,72.55
2019-05-30T19:58:00.977Z,72.66
2019-05-30T19:59:36.276Z,73.09
2019-05-30T20:01:11.657Z,73.50
2019-05-30T20:02:46.385Z,73.79
2019-05-30T20:04:24.573Z,74.00
2019-05-30T20:06:01.096Z,74.19
2019-05-30T20:07:36.828Z,74.41
2019-05-30T20:09:13.653Z,73.92
2019-05-30T20:10:49.416Z,74.35
2019-05-30T20:12:27.057Z,74.76
2019-05-30T20:14:02.297Z,74.87
2019-05-30T20:15:37.691Z,75.25
2019-05-30T20:17:13.138Z,75.42
2019-05-30T20:19:00.251Z,75.25
2019-05-30T20:20:50.450Z,75.65
2019-05-30T20:22:11.901Z,75.65
2019-05-30T20:23:54.530Z,75.68
2019-05-30T20:25:23.561Z,76.40
2019-05-30T20:26:58.790Z,76.74
2019-05-30T20:28:34.706Z,76.87
2019-05-30T20:30:10.822Z,76.90
2019-05-30T20:31:45.796Z,77.48